sensor_id;sensor_type;location;lat;lon;timestamp;P1;durP1;ratioP1;P2;durP2;ratioP2
48623;SDS011;75490;45.802;16.114;2024-03-02T00:00:50;57.25;;;33.53;;
48623;SDS011;75490;45.802;16.114;2024-03-02T00:03:18;73.22;;;36.03;;
48623;SDS011;75490;45.802;16.114;2024-03-02T00:05:49;65.20;;;36.28;;
48623;SDS011;75490;45.802;16.114;2024-03-02T00:08:20;62.83;;;35.67;;
48623;SDS011;75490;45.802;16.114;2024-03-02T00:10:50;64.53;;;36.22;;
48623;SDS011;75490;45.802;16.114;2024-03-02T00:13:19;61.72;;;33.15;;
48623;SDS011;75490;45.802;16.114;2024-03-02T00:15:53;65.43;;;34.20;;
48623;SDS011;75490;45.802;16.114;2024-03-02T00:18:25;68.00;;;35.33;;
48623;SDS011;75490;45.802;16.114;2024-03-02T00:20:54;72.40;;;38.03;;
48623;SDS011;75490;45.802;16.114;2024-03-02T00:23:29;62.25;;;35.40;;
48623;SDS011;75490;45.802;16.114;2024-03-02T00:25:59;66.68;;;37.42;;
48623;SDS011;75490;45.802;16.114;2024-03-02T00:28:27;67.03;;;37.30;;
48623;SDS011;75490;45.802;16.114;2024-03-02T00:33:36;67.40;;;38.28;;
48623;SDS011;75490;45.802;16.114;2024-03-02T00:36:04;66.88;;;35.47;;
48623;SDS011;75490;45.802;16.114;2024-03-02T00:38:31;69.35;;;36.80;;
48623;SDS011;75490;45.802;16.114;2024-03-02T00:41:00;68.13;;;38.30;;
48623;SDS011;75490;45.802;16.114;2024-03-02T00:43:43;71.90;;;37.17;;
48623;SDS011;75490;45.802;16.114;2024-03-02T00:46:11;63.05;;;36.42;;
48623;SDS011;75490;45.802;16.114;2024-03-02T00:48:40;63.83;;;33.22;;
48623;SDS011;75490;45.802;16.114;2024-03-02T00:51:14;64.28;;;35.00;;
48623;SDS011;75490;45.802;16.114;2024-03-02T00:53:41;68.00;;;34.95;;
48623;SDS011;75490;45.802;16.114;2024-03-02T00:56:11;60.60;;;33.88;;
48623;SDS011;75490;45.802;16.114;2024-03-02T00:58:38;57.53;;;31.83;;
48623;SDS011;75490;45.802;16.114;2024-03-02T01:01:06;62.45;;;33.38;;
48623;SDS011;75490;45.802;16.114;2024-03-02T01:03:33;67.57;;;34.15;;
48623;SDS011;75490;45.802;16.114;2024-03-02T01:06:00;63.03;;;33.63;;
48623;SDS011;75490;45.802;16.114;2024-03-02T01:08:27;64.15;;;35.47;;
48623;SDS011;75490;45.802;16.114;2024-03-02T01:10:54;69.93;;;34.45;;
48623;SDS011;75490;45.802;16.114;2024-03-02T01:13:24;64.95;;;36.05;;
48623;SDS011;75490;45.802;16.114;2024-03-02T01:15:51;60.53;;;34.47;;
48623;SDS011;75490;45.802;16.114;2024-03-02T01:18:18;62.53;;;34.90;;
48623;SDS011;75490;45.802;16.114;2024-03-02T01:20:45;62.45;;;34.63;;
48623;SDS011;75490;45.802;16.114;2024-03-02T01:23:12;62.80;;;32.30;;
48623;SDS011;75490;45.802;16.114;2024-03-02T01:25:39;62.85;;;33.05;;
48623;SDS011;75490;45.802;16.114;2024-03-02T01:28:06;59.85;;;33.33;;
48623;SDS011;75490;45.802;16.114;2024-03-02T01:30:33;54.92;;;31.67;;
48623;SDS011;75490;45.802;16.114;2024-03-02T01:33:00;58.40;;;31.25;;
48623;SDS011;75490;45.802;16.114;2024-03-02T01:35:28;54.88;;;28.50;;
48623;SDS011;75490;45.802;16.114;2024-03-02T01:37:55;50.10;;;29.17;;
48623;SDS011;75490;45.802;16.114;2024-03-02T01:40:22;48.95;;;28.80;;
48623;SDS011;75490;45.802;16.114;2024-03-02T01:42:53;48.53;;;29.23;;
48623;SDS011;75490;45.802;16.114;2024-03-02T01:45:26;49.20;;;27.40;;
48623;SDS011;75490;45.802;16.114;2024-03-02T01:47:53;49.25;;;27.33;;
48623;SDS011;75490;45.802;16.114;2024-03-02T01:50:30;58.17;;;30.10;;
48623;SDS011;75490;45.802;16.114;2024-03-02T01:52:58;53.97;;;28.27;;
48623;SDS011;75490;45.802;16.114;2024-03-02T01:55:26;49.50;;;27.02;;
48623;SDS011;75490;45.802;16.114;2024-03-02T01:57:54;46.30;;;27.85;;
48623;SDS011;75490;45.802;16.114;2024-03-02T02:00:23;52.17;;;28.73;;
48623;SDS011;75490;45.802;16.114;2024-03-02T02:02:53;48.53;;;27.10;;
48623;SDS011;75490;45.802;16.114;2024-03-02T02:05:21;58.45;;;28.70;;
48623;SDS011;75490;45.802;16.114;2024-03-02T02:07:48;52.28;;;27.30;;
48623;SDS011;75490;45.802;16.114;2024-03-02T02:10:15;48.22;;;26.77;;
48623;SDS011;75490;45.802;16.114;2024-03-02T02:12:42;55.75;;;28.30;;
48623;SDS011;75490;45.802;16.114;2024-03-02T02:15:28;54.10;;;28.30;;
48623;SDS011;75490;45.802;16.114;2024-03-02T02:17:56;56.30;;;26.40;;
48623;SDS011;75490;45.802;16.114;2024-03-02T02:20:23;49.97;;;26.30;;
48623;SDS011;75490;45.802;16.114;2024-03-02T02:23:01;50.85;;;26.77;;
48623;SDS011;75490;45.802;16.114;2024-03-02T02:25:29;47.90;;;25.85;;
48623;SDS011;75490;45.802;16.114;2024-03-02T02:27:56;53.03;;;27.23;;
48623;SDS011;75490;45.802;16.114;2024-03-02T02:30:26;51.95;;;27.05;;
48623;SDS011;75490;45.802;16.114;2024-03-02T02:32:54;44.37;;;24.37;;
48623;SDS011;75490;45.802;16.114;2024-03-02T02:35:21;45.85;;;26.25;;
48623;SDS011;75490;45.802;16.114;2024-03-02T02:37:48;45.70;;;26.33;;
48623;SDS011;75490;45.802;16.114;2024-03-02T02:40:16;42.15;;;23.58;;
48623;SDS011;75490;45.802;16.114;2024-03-02T02:42:43;38.65;;;23.02;;
48623;SDS011;75490;45.802;16.114;2024-03-02T02:45:10;39.55;;;23.75;;
48623;SDS011;75490;45.802;16.114;2024-03-02T02:47:37;137.35;;;37.10;;
48623;SDS011;75490;45.802;16.114;2024-03-02T02:50:04;51.10;;;31.30;;
48623;SDS011;75490;45.802;16.114;2024-03-02T02:52:37;78.35;;;37.10;;
48623;SDS011;75490;45.802;16.114;2024-03-02T02:55:07;63.53;;;37.20;;
48623;SDS011;75490;45.802;16.114;2024-03-02T02:57:36;145.13;;;47.03;;
48623;SDS011;75490;45.802;16.114;2024-03-02T03:00:06;166.45;;;49.90;;
48623;SDS011;75490;45.802;16.114;2024-03-02T03:02:40;96.50;;;41.47;;
48623;SDS011;75490;45.802;16.114;2024-03-02T03:05:09;174.85;;;50.17;;
48623;SDS011;75490;45.802;16.114;2024-03-02T03:07:38;148.30;;;49.00;;
48623;SDS011;75490;45.802;16.114;2024-03-02T03:10:06;99.90;;;41.08;;
48623;SDS011;75490;45.802;16.114;2024-03-02T03:12:34;163.95;;;53.60;;
48623;SDS011;75490;45.802;16.114;2024-03-02T03:15:02;128.65;;;48.55;;
48623;SDS011;75490;45.802;16.114;2024-03-02T03:17:31;140.25;;;46.50;;
48623;SDS011;75490;45.802;16.114;2024-03-02T03:19:58;85.15;;;41.75;;
48623;SDS011;75490;45.802;16.114;2024-03-02T03:22:24;153.65;;;49.33;;
48623;SDS011;75490;45.802;16.114;2024-03-02T03:24:51;66.13;;;40.42;;
48623;SDS011;75490;45.802;16.114;2024-03-02T03:27:18;82.60;;;42.58;;
48623;SDS011;75490;45.802;16.114;2024-03-02T03:29:46;67.10;;;40.08;;
48623;SDS011;75490;45.802;16.114;2024-03-02T03:32:12;74.30;;;41.13;;
48623;SDS011;75490;45.802;16.114;2024-03-02T03:34:40;67.30;;;39.53;;
48623;SDS011;75490;45.802;16.114;2024-03-02T03:37:07;60.45;;;35.88;;
48623;SDS011;75490;45.802;16.114;2024-03-02T03:39:34;71.20;;;40.90;;
48623;SDS011;75490;45.802;16.114;2024-03-02T03:42:02;66.55;;;40.13;;
48623;SDS011;75490;45.802;16.114;2024-03-02T03:44:29;114.05;;;46.97;;
48623;SDS011;75490;45.802;16.114;2024-03-02T03:46:56;71.20;;;40.38;;
48623;SDS011;75490;45.802;16.114;2024-03-02T03:49:23;77.05;;;41.45;;
48623;SDS011;75490;45.802;16.114;2024-03-02T03:51:50;78.05;;;42.50;;
48623;SDS011;75490;45.802;16.114;2024-03-02T03:54:17;65.63;;;38.42;;
48623;SDS011;75490;45.802;16.114;2024-03-02T03:56:43;76.65;;;43.88;;
48623;SDS011;75490;45.802;16.114;2024-03-02T03:59:10;63.35;;;38.95;;
48623;SDS011;75490;45.802;16.114;2024-03-02T04:01:37;70.13;;;41.72;;
48623;SDS011;75490;45.802;16.114;2024-03-02T04:04:04;79.82;;;41.78;;
48623;SDS011;75490;45.802;16.114;2024-03-02T04:06:31;87.00;;;43.83;;
48623;SDS011;75490;45.802;16.114;2024-03-02T04:08:59;68.78;;;41.42;;
48623;SDS011;75490;45.802;16.114;2024-03-02T04:11:27;67.15;;;39.28;;
48623;SDS011;75490;45.802;16.114;2024-03-02T04:13:54;84.00;;;44.63;;
48623;SDS011;75490;45.802;16.114;2024-03-02T04:16:21;93.97;;;42.97;;
48623;SDS011;75490;45.802;16.114;2024-03-02T04:18:48;128.50;;;44.65;;
48623;SDS011;75490;45.802;16.114;2024-03-02T04:21:14;130.57;;;47.35;;
48623;SDS011;75490;45.802;16.114;2024-03-02T04:23:41;138.98;;;46.72;;
48623;SDS011;75490;45.802;16.114;2024-03-02T04:26:08;109.07;;;45.70;;
48623;SDS011;75490;45.802;16.114;2024-03-02T04:28:35;131.63;;;46.58;;
48623;SDS011;75490;45.802;16.114;2024-03-02T04:31:02;125.72;;;45.25;;
48623;SDS011;75490;45.802;16.114;2024-03-02T04:33:29;132.73;;;46.30;;
48623;SDS011;75490;45.802;16.114;2024-03-02T04:35:55;128.63;;;44.92;;
48623;SDS011;75490;45.802;16.114;2024-03-02T04:38:22;76.68;;;37.67;;
48623;SDS011;75490;45.802;16.114;2024-03-02T04:40:49;113.18;;;42.78;;
48623;SDS011;75490;45.802;16.114;2024-03-02T04:43:16;87.63;;;38.63;;
48623;SDS011;75490;45.802;16.114;2024-03-02T04:45:43;78.97;;;39.22;;
48623;SDS011;75490;45.802;16.114;2024-03-02T04:48:10;152.82;;;45.97;;
48623;SDS011;75490;45.802;16.114;2024-03-02T04:50:36;76.10;;;38.72;;
48623;SDS011;75490;45.802;16.114;2024-03-02T04:53:03;134.13;;;41.03;;
48623;SDS011;75490;45.802;16.114;2024-03-02T04:55:30;137.73;;;41.45;;
48623;SDS011;75490;45.802;16.114;2024-03-02T04:58:06;63.45;;;33.80;;
48623;SDS011;75490;45.802;16.114;2024-03-02T05:00:33;109.93;;;39.20;;
48623;SDS011;75490;45.802;16.114;2024-03-02T05:03:01;109.50;;;37.38;;
48623;SDS011;75490;45.802;16.114;2024-03-02T05:05:28;64.88;;;33.80;;
48623;SDS011;75490;45.802;16.114;2024-03-02T05:07:55;63.90;;;32.92;;
48623;SDS011;75490;45.802;16.114;2024-03-02T05:10:22;70.70;;;32.28;;
48623;SDS011;75490;45.802;16.114;2024-03-02T05:12:48;61.63;;;31.50;;
48623;SDS011;75490;45.802;16.114;2024-03-02T05:15:33;67.68;;;32.83;;
48623;SDS011;75490;45.802;16.114;2024-03-02T05:18:00;79.05;;;32.72;;
48623;SDS011;75490;45.802;16.114;2024-03-02T05:20:29;61.53;;;32.65;;
48623;SDS011;75490;45.802;16.114;2024-03-02T05:22:56;79.97;;;33.47;;
48623;SDS011;75490;45.802;16.114;2024-03-02T05:25:23;80.55;;;32.72;;
48623;SDS011;75490;45.802;16.114;2024-03-02T05:27:49;67.03;;;32.63;;
48623;SDS011;75490;45.802;16.114;2024-03-02T05:30:16;72.15;;;33.33;;
48623;SDS011;75490;45.802;16.114;2024-03-02T05:32:43;81.95;;;35.88;;
48623;SDS011;75490;45.802;16.114;2024-03-02T05:35:10;73.70;;;35.10;;
48623;SDS011;75490;45.802;16.114;2024-03-02T05:37:39;78.82;;;32.80;;
48623;SDS011;75490;45.802;16.114;2024-03-02T05:40:06;74.75;;;34.80;;
48623;SDS011;75490;45.802;16.114;2024-03-02T05:42:33;69.32;;;33.13;;
48623;SDS011;75490;45.802;16.114;2024-03-02T05:45:00;75.15;;;33.85;;
48623;SDS011;75490;45.802;16.114;2024-03-02T05:47:27;70.63;;;34.67;;
48623;SDS011;75490;45.802;16.114;2024-03-02T05:49:54;84.72;;;36.78;;
48623;SDS011;75490;45.802;16.114;2024-03-02T05:52:21;67.03;;;33.08;;
48623;SDS011;75490;45.802;16.114;2024-03-02T05:54:47;102.55;;;38.08;;
48623;SDS011;75490;45.802;16.114;2024-03-02T05:57:16;72.20;;;33.83;;
48623;SDS011;75490;45.802;16.114;2024-03-02T06:00:01;74.40;;;35.05;;
48623;SDS011;75490;45.802;16.114;2024-03-02T06:02:28;67.15;;;34.40;;
48623;SDS011;75490;45.802;16.114;2024-03-02T06:04:55;79.88;;;34.30;;
48623;SDS011;75490;45.802;16.114;2024-03-02T06:07:22;58.58;;;30.60;;
48623;SDS011;75490;45.802;16.114;2024-03-02T06:09:49;77.07;;;33.47;;
48623;SDS011;75490;45.802;16.114;2024-03-02T06:12:18;79.25;;;34.22;;
48623;SDS011;75490;45.802;16.114;2024-03-02T06:14:45;64.78;;;33.28;;
48623;SDS011;75490;45.802;16.114;2024-03-02T06:17:12;98.50;;;35.15;;
48623;SDS011;75490;45.802;16.114;2024-03-02T06:19:39;59.00;;;30.02;;
48623;SDS011;75490;45.802;16.114;2024-03-02T06:22:05;70.65;;;31.85;;
48623;SDS011;75490;45.802;16.114;2024-03-02T06:24:32;83.93;;;32.72;;
48623;SDS011;75490;45.802;16.114;2024-03-02T06:26:59;87.20;;;32.10;;
48623;SDS011;75490;45.802;16.114;2024-03-02T06:29:26;75.10;;;35.20;;
48623;SDS011;75490;45.802;16.114;2024-03-02T06:31:53;91.28;;;37.38;;
48623;SDS011;75490;45.802;16.114;2024-03-02T06:34:19;74.70;;;33.50;;
48623;SDS011;75490;45.802;16.114;2024-03-02T06:36:46;84.60;;;38.20;;
48623;SDS011;75490;45.802;16.114;2024-03-02T06:39:14;87.55;;;32.50;;
48623;SDS011;75490;45.802;16.114;2024-03-02T06:41:41;68.25;;;32.83;;
48623;SDS011;75490;45.802;16.114;2024-03-02T06:44:09;142.20;;;39.63;;
48623;SDS011;75490;45.802;16.114;2024-03-02T06:46:35;100.32;;;33.78;;
48623;SDS011;75490;45.802;16.114;2024-03-02T06:49:02;80.93;;;31.85;;
48623;SDS011;75490;45.802;16.114;2024-03-02T06:51:30;148.27;;;37.33;;
48623;SDS011;75490;45.802;16.114;2024-03-02T06:53:58;135.90;;;37.13;;
48623;SDS011;75490;45.802;16.114;2024-03-02T06:56:24;66.03;;;34.90;;
48623;SDS011;75490;45.802;16.114;2024-03-02T06:58:51;94.32;;;32.83;;
48623;SDS011;75490;45.802;16.114;2024-03-02T07:01:18;105.78;;;36.85;;
48623;SDS011;75490;45.802;16.114;2024-03-02T07:03:46;121.10;;;37.13;;
48623;SDS011;75490;45.802;16.114;2024-03-02T07:06:13;108.50;;;38.17;;
48623;SDS011;75490;45.802;16.114;2024-03-02T07:08:40;74.03;;;33.33;;
48623;SDS011;75490;45.802;16.114;2024-03-02T07:11:07;74.95;;;30.92;;
48623;SDS011;75490;45.802;16.114;2024-03-02T07:13:34;118.63;;;35.22;;
48623;SDS011;75490;45.802;16.114;2024-03-02T07:16:01;97.90;;;31.30;;
48623;SDS011;75490;45.802;16.114;2024-03-02T07:18:37;62.47;;;30.52;;
48623;SDS011;75490;45.802;16.114;2024-03-02T07:21:08;93.32;;;32.45;;
48623;SDS011;75490;45.802;16.114;2024-03-02T07:23:35;69.00;;;30.10;;
48623;SDS011;75490;45.802;16.114;2024-03-02T07:26:02;144.13;;;37.67;;
48623;SDS011;75490;45.802;16.114;2024-03-02T07:28:29;98.53;;;31.85;;
48623;SDS011;75490;45.802;16.114;2024-03-02T07:31:00;87.35;;;28.90;;
48623;SDS011;75490;45.802;16.114;2024-03-02T07:33:27;92.03;;;30.27;;
48623;SDS011;75490;45.802;16.114;2024-03-02T07:35:54;73.05;;;27.60;;
48623;SDS011;75490;45.802;16.114;2024-03-02T07:38:25;86.57;;;29.80;;
48623;SDS011;75490;45.802;16.114;2024-03-02T07:40:53;66.28;;;28.30;;
48623;SDS011;75490;45.802;16.114;2024-03-02T07:43:20;64.70;;;28.42;;
48623;SDS011;75490;45.802;16.114;2024-03-02T07:45:48;60.45;;;26.08;;
48623;SDS011;75490;45.802;16.114;2024-03-02T07:48:15;59.85;;;27.38;;
48623;SDS011;75490;45.802;16.114;2024-03-02T07:50:42;54.70;;;24.40;;
48623;SDS011;75490;45.802;16.114;2024-03-02T07:53:09;55.92;;;24.75;;
48623;SDS011;75490;45.802;16.114;2024-03-02T07:55:36;53.50;;;25.35;;
48623;SDS011;75490;45.802;16.114;2024-03-02T07:58:03;55.83;;;26.73;;
48623;SDS011;75490;45.802;16.114;2024-03-02T08:00:30;45.47;;;23.67;;
48623;SDS011;75490;45.802;16.114;2024-03-02T08:02:57;50.58;;;24.70;;
48623;SDS011;75490;45.802;16.114;2024-03-02T08:05:24;57.20;;;25.38;;
48623;SDS011;75490;45.802;16.114;2024-03-02T08:07:51;47.38;;;23.33;;
48623;SDS011;75490;45.802;16.114;2024-03-02T08:10:21;48.17;;;24.38;;
48623;SDS011;75490;45.802;16.114;2024-03-02T08:12:47;52.03;;;23.98;;
48623;SDS011;75490;45.802;16.114;2024-03-02T08:15:14;58.05;;;24.65;;
48623;SDS011;75490;45.802;16.114;2024-03-02T08:17:41;53.50;;;25.13;;
48623;SDS011;75490;45.802;16.114;2024-03-02T08:20:11;51.05;;;27.30;;
48623;SDS011;75490;45.802;16.114;2024-03-02T08:22:39;46.28;;;25.02;;
48623;SDS011;75490;45.802;16.114;2024-03-02T08:25:06;42.60;;;23.42;;
48623;SDS011;75490;45.802;16.114;2024-03-02T08:27:34;43.30;;;22.98;;
48623;SDS011;75490;45.802;16.114;2024-03-02T08:30:01;48.40;;;24.15;;
48623;SDS011;75490;45.802;16.114;2024-03-02T08:34:59;47.17;;;23.35;;
48623;SDS011;75490;45.802;16.114;2024-03-02T08:37:26;43.08;;;22.35;;
48623;SDS011;75490;45.802;16.114;2024-03-02T08:39:53;47.08;;;24.23;;
48623;SDS011;75490;45.802;16.114;2024-03-02T08:42:20;49.15;;;24.05;;
48623;SDS011;75490;45.802;16.114;2024-03-02T08:44:47;46.47;;;26.10;;
48623;SDS011;75490;45.802;16.114;2024-03-02T08:47:14;42.30;;;22.52;;
48623;SDS011;75490;45.802;16.114;2024-03-02T08:49:41;47.75;;;24.65;;
48623;SDS011;75490;45.802;16.114;2024-03-02T08:52:08;53.85;;;25.13;;
48623;SDS011;75490;45.802;16.114;2024-03-02T08:54:35;58.13;;;26.92;;
48623;SDS011;75490;45.802;16.114;2024-03-02T08:57:02;51.90;;;26.95;;
48623;SDS011;75490;45.802;16.114;2024-03-02T08:59:29;63.15;;;27.67;;
48623;SDS011;75490;45.802;16.114;2024-03-02T09:01:56;53.00;;;27.42;;
48623;SDS011;75490;45.802;16.114;2024-03-02T09:04:23;51.45;;;27.17;;
48623;SDS011;75490;45.802;16.114;2024-03-02T09:06:50;50.08;;;24.90;;
48623;SDS011;75490;45.802;16.114;2024-03-02T09:09:17;55.17;;;27.67;;
48623;SDS011;75490;45.802;16.114;2024-03-02T09:11:45;51.88;;;27.58;;
48623;SDS011;75490;45.802;16.114;2024-03-02T09:14:12;61.30;;;29.45;;
48623;SDS011;75490;45.802;16.114;2024-03-02T09:16:42;60.80;;;30.88;;
48623;SDS011;75490;45.802;16.114;2024-03-02T09:19:09;56.83;;;29.33;;
48623;SDS011;75490;45.802;16.114;2024-03-02T09:21:36;52.83;;;28.73;;
48623;SDS011;75490;45.802;16.114;2024-03-02T09:24:03;53.28;;;26.67;;
48623;SDS011;75490;45.802;16.114;2024-03-02T09:26:30;51.85;;;28.67;;
48623;SDS011;75490;45.802;16.114;2024-03-02T09:28:57;48.65;;;26.10;;
48623;SDS011;75490;45.802;16.114;2024-03-02T09:31:24;54.67;;;27.77;;
48623;SDS011;75490;45.802;16.114;2024-03-02T09:33:51;54.78;;;26.63;;
48623;SDS011;75490;45.802;16.114;2024-03-02T09:36:18;50.75;;;27.00;;
48623;SDS011;75490;45.802;16.114;2024-03-02T09:38:48;55.65;;;26.83;;
48623;SDS011;75490;45.802;16.114;2024-03-02T09:41:15;51.67;;;27.88;;
48623;SDS011;75490;45.802;16.114;2024-03-02T09:43:42;53.80;;;28.17;;
48623;SDS011;75490;45.802;16.114;2024-03-02T09:46:10;53.20;;;27.02;;
48623;SDS011;75490;45.802;16.114;2024-03-02T09:48:37;46.47;;;26.40;;
48623;SDS011;75490;45.802;16.114;2024-03-02T09:51:04;48.90;;;27.58;;
48623;SDS011;75490;45.802;16.114;2024-03-02T09:53:32;52.05;;;28.65;;
48623;SDS011;75490;45.802;16.114;2024-03-02T09:56:00;51.95;;;28.17;;
48623;SDS011;75490;45.802;16.114;2024-03-02T09:58:27;46.35;;;25.85;;
48623;SDS011;75490;45.802;16.114;2024-03-02T10:00:54;52.38;;;28.15;;
48623;SDS011;75490;45.802;16.114;2024-03-02T10:03:22;46.50;;;26.27;;
48623;SDS011;75490;45.802;16.114;2024-03-02T10:05:51;47.45;;;27.92;;
48623;SDS011;75490;45.802;16.114;2024-03-02T10:08:18;45.67;;;27.10;;
48623;SDS011;75490;45.802;16.114;2024-03-02T10:10:48;47.10;;;26.95;;
48623;SDS011;75490;45.802;16.114;2024-03-02T10:13:15;47.77;;;28.73;;
48623;SDS011;75490;45.802;16.114;2024-03-02T10:15:42;48.92;;;27.98;;
48623;SDS011;75490;45.802;16.114;2024-03-02T10:18:10;50.35;;;27.13;;
48623;SDS011;75490;45.802;16.114;2024-03-02T10:20:42;45.53;;;26.15;;
48623;SDS011;75490;45.802;16.114;2024-03-02T10:23:12;48.03;;;26.13;;
48623;SDS011;75490;45.802;16.114;2024-03-02T10:25:39;52.38;;;28.55;;
48623;SDS011;75490;45.802;16.114;2024-03-02T10:28:06;57.00;;;32.95;;
48623;SDS011;75490;45.802;16.114;2024-03-02T10:30:33;47.83;;;26.83;;
48623;SDS011;75490;45.802;16.114;2024-03-02T10:33:01;49.92;;;27.98;;
48623;SDS011;75490;45.802;16.114;2024-03-02T10:35:29;50.65;;;28.95;;
48623;SDS011;75490;45.802;16.114;2024-03-02T10:37:58;48.65;;;29.58;;
48623;SDS011;75490;45.802;16.114;2024-03-02T10:40:27;51.15;;;29.77;;
48623;SDS011;75490;45.802;16.114;2024-03-02T10:42:53;50.80;;;28.30;;
48623;SDS011;75490;45.802;16.114;2024-03-02T10:45:21;48.67;;;28.15;;
48623;SDS011;75490;45.802;16.114;2024-03-02T10:47:50;49.42;;;29.45;;
48623;SDS011;75490;45.802;16.114;2024-03-02T10:50:17;54.88;;;30.00;;
48623;SDS011;75490;45.802;16.114;2024-03-02T10:52:45;51.30;;;29.73;;
48623;SDS011;75490;45.802;16.114;2024-03-02T10:55:11;53.42;;;28.70;;
48623;SDS011;75490;45.802;16.114;2024-03-02T10:57:44;48.45;;;27.15;;
48623;SDS011;75490;45.802;16.114;2024-03-02T11:00:17;48.85;;;29.60;;
48623;SDS011;75490;45.802;16.114;2024-03-02T11:02:47;51.25;;;27.92;;
48623;SDS011;75490;45.802;16.114;2024-03-02T11:05:26;51.45;;;29.42;;
48623;SDS011;75490;45.802;16.114;2024-03-02T11:07:57;51.40;;;28.83;;
48623;SDS011;75490;45.802;16.114;2024-03-02T11:10:34;49.85;;;30.17;;
48623;SDS011;75490;45.802;16.114;2024-03-02T11:13:08;54.67;;;29.70;;
48623;SDS011;75490;45.802;16.114;2024-03-02T11:15:35;47.70;;;28.20;;
48623;SDS011;75490;45.802;16.114;2024-03-02T11:18:04;43.83;;;27.05;;
48623;SDS011;75490;45.802;16.114;2024-03-02T11:20:36;44.95;;;27.08;;
48623;SDS011;75490;45.802;16.114;2024-03-02T11:23:05;45.35;;;26.05;;
48623;SDS011;75490;45.802;16.114;2024-03-02T11:25:36;43.40;;;25.23;;
48623;SDS011;75490;45.802;16.114;2024-03-02T11:28:03;47.92;;;26.20;;
48623;SDS011;75490;45.802;16.114;2024-03-02T11:32:58;44.85;;;27.75;;
48623;SDS011;75490;45.802;16.114;2024-03-02T11:35:25;45.47;;;27.38;;
48623;SDS011;75490;45.802;16.114;2024-03-02T11:37:53;48.42;;;28.25;;
48623;SDS011;75490;45.802;16.114;2024-03-02T11:40:24;48.65;;;27.58;;
48623;SDS011;75490;45.802;16.114;2024-03-02T11:42:52;51.00;;;28.88;;
48623;SDS011;75490;45.802;16.114;2024-03-02T11:45:23;51.63;;;28.35;;
48623;SDS011;75490;45.802;16.114;2024-03-02T11:47:51;53.42;;;29.92;;
48623;SDS011;75490;45.802;16.114;2024-03-02T11:53:05;52.70;;;30.50;;
48623;SDS011;75490;45.802;16.114;2024-03-02T11:55:37;50.80;;;28.80;;
48623;SDS011;75490;45.802;16.114;2024-03-02T11:58:09;46.88;;;26.85;;
48623;SDS011;75490;45.802;16.114;2024-03-02T12:00:36;51.08;;;27.10;;
48623;SDS011;75490;45.802;16.114;2024-03-02T12:03:12;47.33;;;26.67;;
48623;SDS011;75490;45.802;16.114;2024-03-02T12:05:39;42.38;;;24.88;;
48623;SDS011;75490;45.802;16.114;2024-03-02T12:08:07;43.72;;;24.50;;
48623;SDS011;75490;45.802;16.114;2024-03-02T12:10:34;41.22;;;24.17;;
48623;SDS011;75490;45.802;16.114;2024-03-02T12:13:03;42.80;;;24.88;;
48623;SDS011;75490;45.802;16.114;2024-03-02T12:15:31;40.47;;;23.85;;
48623;SDS011;75490;45.802;16.114;2024-03-02T12:18:00;40.95;;;24.73;;
48623;SDS011;75490;45.802;16.114;2024-03-02T12:20:29;42.50;;;24.20;;
48623;SDS011;75490;45.802;16.114;2024-03-02T12:22:58;36.70;;;21.88;;
48623;SDS011;75490;45.802;16.114;2024-03-02T12:25:27;38.90;;;23.08;;
48623;SDS011;75490;45.802;16.114;2024-03-02T12:27:55;40.38;;;22.10;;
48623;SDS011;75490;45.802;16.114;2024-03-02T12:32:53;38.88;;;22.92;;
48623;SDS011;75490;45.802;16.114;2024-03-02T12:35:21;46.13;;;25.38;;
48623;SDS011;75490;45.802;16.114;2024-03-02T12:37:48;39.90;;;23.05;;
48623;SDS011;75490;45.802;16.114;2024-03-02T12:40:16;37.70;;;22.00;;
48623;SDS011;75490;45.802;16.114;2024-03-02T12:42:45;36.60;;;21.48;;
48623;SDS011;75490;45.802;16.114;2024-03-02T12:45:13;37.60;;;22.52;;
48623;SDS011;75490;45.802;16.114;2024-03-02T12:47:40;37.00;;;23.02;;
48623;SDS011;75490;45.802;16.114;2024-03-02T12:50:09;35.20;;;20.25;;
48623;SDS011;75490;45.802;16.114;2024-03-02T12:52:36;35.92;;;20.15;;
48623;SDS011;75490;45.802;16.114;2024-03-02T12:55:06;32.30;;;19.80;;
48623;SDS011;75490;45.802;16.114;2024-03-02T12:57:33;38.93;;;22.47;;
48623;SDS011;75490;45.802;16.114;2024-03-02T13:00:04;34.72;;;21.45;;
48623;SDS011;75490;45.802;16.114;2024-03-02T13:02:40;35.28;;;18.08;;
48623;SDS011;75490;45.802;16.114;2024-03-02T13:05:07;29.73;;;18.05;;
48623;SDS011;75490;45.802;16.114;2024-03-02T13:07:38;34.15;;;19.52;;
48623;SDS011;75490;45.802;16.114;2024-03-02T13:10:05;31.65;;;18.73;;
48623;SDS011;75490;45.802;16.114;2024-03-02T13:12:35;35.72;;;20.45;;
48623;SDS011;75490;45.802;16.114;2024-03-02T13:15:03;30.15;;;18.33;;
48623;SDS011;75490;45.802;16.114;2024-03-02T13:17:34;33.35;;;19.23;;
48623;SDS011;75490;45.802;16.114;2024-03-02T13:20:02;34.00;;;19.80;;
48623;SDS011;75490;45.802;16.114;2024-03-02T13:22:30;31.48;;;19.67;;
48623;SDS011;75490;45.802;16.114;2024-03-02T13:24:58;31.65;;;19.33;;
48623;SDS011;75490;45.802;16.114;2024-03-02T13:27:26;25.33;;;17.30;;
48623;SDS011;75490;45.802;16.114;2024-03-02T13:29:53;27.85;;;16.25;;
48623;SDS011;75490;45.802;16.114;2024-03-02T13:32:20;30.33;;;18.95;;
48623;SDS011;75490;45.802;16.114;2024-03-02T13:34:50;26.00;;;16.17;;
48623;SDS011;75490;45.802;16.114;2024-03-02T13:37:17;25.15;;;16.20;;
48623;SDS011;75490;45.802;16.114;2024-03-02T13:39:44;31.23;;;19.55;;
48623;SDS011;75490;45.802;16.114;2024-03-02T13:42:10;30.30;;;18.05;;
48623;SDS011;75490;45.802;16.114;2024-03-02T13:44:40;27.08;;;16.60;;
48623;SDS011;75490;45.802;16.114;2024-03-02T13:47:12;25.00;;;15.25;;
48623;SDS011;75490;45.802;16.114;2024-03-02T13:49:39;23.52;;;14.70;;
48623;SDS011;75490;45.802;16.114;2024-03-02T13:52:10;25.48;;;14.45;;
48623;SDS011;75490;45.802;16.114;2024-03-02T13:54:37;25.50;;;14.15;;
48623;SDS011;75490;45.802;16.114;2024-03-02T13:57:06;24.92;;;13.95;;
48623;SDS011;75490;45.802;16.114;2024-03-02T13:59:34;21.67;;;13.15;;
48623;SDS011;75490;45.802;16.114;2024-03-02T14:02:02;21.02;;;11.90;;
48623;SDS011;75490;45.802;16.114;2024-03-02T14:04:36;23.75;;;13.85;;
48623;SDS011;75490;45.802;16.114;2024-03-02T14:09:30;21.27;;;12.55;;
48623;SDS011;75490;45.802;16.114;2024-03-02T14:11:57;22.25;;;12.48;;
48623;SDS011;75490;45.802;16.114;2024-03-02T14:14:23;21.50;;;12.52;;
48623;SDS011;75490;45.802;16.114;2024-03-02T14:16:50;21.30;;;12.18;;
48623;SDS011;75490;45.802;16.114;2024-03-02T14:19:17;18.08;;;11.23;;
48623;SDS011;75490;45.802;16.114;2024-03-02T14:21:44;22.70;;;12.90;;
48623;SDS011;75490;45.802;16.114;2024-03-02T14:24:11;24.63;;;13.52;;
48623;SDS011;75490;45.802;16.114;2024-03-02T14:26:38;18.90;;;11.82;;
48623;SDS011;75490;45.802;16.114;2024-03-02T14:29:05;21.98;;;13.07;;